createdAt,value
2022-09-18T00:00:10.484Z,95609.72
2022-09-18T00:02:37.158Z,95508.91
2022-09-18T00:05:05.390Z,95612.97
2022-09-18T00:07:32.032Z,95642.69
2022-09-18T00:09:58.595Z,95625.25
2022-09-18T00:12:25.191Z,95619.09
2022-09-18T00:14:51.975Z,95642.97
2022-09-18T00:17:18.546Z,95622.81
2022-09-18T00:19:45.108Z,95578.94
2022-09-18T00:22:11.853Z,95586.50
2022-09-18T00:24:38.501Z,95576.69
2022-09-18T00:27:05.337Z,95623.31
2022-09-18T00:29:31.992Z,95428.19
2022-09-18T00:31:59.919Z,95627.03
2022-09-18T00:34:26.542Z,95616.22
2022-09-18T00:36:53.105Z,95580.91
2022-09-18T00:39:19.899Z,95575.22
2022-09-18T00:41:46.454Z,95393.88
2022-09-18T00:44:22.108Z,95657.41
2022-09-18T00:46:48.740Z,95663.25
2022-09-18T00:49:19.103Z,95592.22
2022-09-18T00:51:46.326Z,95642.78
2022-09-18T00:54:23.399Z,95609.97
2022-09-18T00:56:50.724Z,95659.06
2022-09-18T00:59:20.156Z,95588.84
2022-09-18T01:01:46.745Z,95631.13
2022-09-18T01:04:14.112Z,95549.19
2022-09-18T01:06:46.848Z,95634.88
2022-09-18T01:09:28.819Z,95669.59
2022-09-18T01:12:10.788Z,95664.75
2022-09-18T01:14:43.056Z,95602.91
2022-09-18T01:17:12.529Z,95659.09
2022-09-18T01:20:10.062Z,95669.25
2022-09-18T01:22:51.741Z,95676.69
2022-09-18T01:25:47.159Z,95590.78
2022-09-18T01:28:23.720Z,95681.69
2022-09-18T01:30:51.047Z,95608.38
2022-09-18T01:33:31.579Z,95664.09
2022-09-18T01:36:00.081Z,95587.06
2022-09-18T01:38:33.458Z,95684.75
2022-09-18T01:41:06.263Z,95531.53
2022-09-18T01:43:32.956Z,95428.41
2022-09-18T01:46:03.944Z,95628.25
2022-09-18T01:48:51.639Z,95619.69
2022-09-18T01:51:20.630Z,95666.19
2022-09-18T01:54:11.027Z,95666.00
2022-09-18T01:56:43.594Z,95634.97
2022-09-18T01:59:12.398Z,95617.72
2022-09-18T02:01:39.217Z,95636.59
2022-09-18T02:04:11.563Z,95482.41
2022-09-18T02:06:39.868Z,95679.41
2022-09-18T02:09:06.479Z,95609.25
2022-09-18T02:11:33.380Z,95574.41
2022-09-18T02:14:14.785Z,95619.44
2022-09-18T02:16:46.025Z,95598.41
2022-09-18T02:19:28.240Z,95577.09
2022-09-18T02:21:54.866Z,95641.00
2022-09-18T02:24:22.296Z,95571.69
2022-09-18T02:26:48.851Z,95579.66
2022-09-18T02:29:15.735Z,95652.31
2022-09-18T02:31:42.425Z,95670.25
2022-09-18T02:34:09.554Z,95670.59
2022-09-18T02:36:59.321Z,95630.88
2022-09-18T02:39:44.397Z,95687.56
2022-09-18T02:42:22.936Z,95680.81
2022-09-18T02:45:03.157Z,95684.69
2022-09-18T02:48:00.664Z,95696.31
2022-09-18T02:50:41.594Z,95670.78
2022-09-18T02:53:10.884Z,95666.25
2022-09-18T02:55:42.999Z,95700.34
2022-09-18T02:58:20.192Z,95588.09
2022-09-18T03:00:46.806Z,95675.97
2022-09-18T03:03:14.526Z,95661.44
2022-09-18T03:05:41.090Z,95633.00
2022-09-18T03:08:07.705Z,95630.75
2022-09-18T03:10:34.287Z,95657.41
2022-09-18T03:13:01.394Z,95640.44
2022-09-18T03:15:28.047Z,95644.31
2022-09-18T03:17:54.615Z,95650.97
2022-09-18T03:20:21.205Z,95652.41
2022-09-18T03:22:47.829Z,95651.28
2022-09-18T03:25:15.431Z,95597.34
2022-09-18T03:27:42.995Z,95633.03
2022-09-18T03:30:09.994Z,95448.03
2022-09-18T03:32:36.601Z,95650.13
2022-09-18T03:35:03.184Z,95588.44
2022-09-18T03:37:29.739Z,95572.78
2022-09-18T03:39:56.600Z,95663.72
2022-09-18T03:42:23.179Z,95685.69
2022-09-18T03:44:49.759Z,95654.81
2022-09-18T03:47:16.360Z,95645.97
2022-09-18T03:49:42.899Z,95642.25
2022-09-18T03:52:09.469Z,95605.91
2022-09-18T03:54:36.035Z,95608.53
2022-09-18T03:57:02.606Z,95362.88
2022-09-18T03:59:29.193Z,95635.66
2022-09-18T04:01:55.928Z,95629.03
2022-09-18T04:04:22.655Z,95606.94
2022-09-18T04:06:49.232Z,95620.81
2022-09-18T04:09:20.838Z,95655.38
2022-09-18T04:11:47.406Z,95604.34
2022-09-18T04:14:14.825Z,95603.38
2022-09-18T04:16:41.403Z,95645.66
2022-09-18T04:19:08.004Z,95607.91
2022-09-18T04:21:34.625Z,95626.47
2022-09-18T04:24:01.427Z,95633.72
2022-09-18T04:26:28.081Z,95644.53
2022-09-18T04:28:54.726Z,95493.41
2022-09-18T04:31:21.337Z,95691.00
2022-09-18T04:33:48.421Z,95647.59
2022-09-18T04:36:15.294Z,95648.22
2022-09-18T04:38:41.854Z,95646.28
2022-09-18T04:41:08.634Z,95611.59
2022-09-18T04:43:35.204Z,95575.25
2022-09-18T04:46:02.473Z,95536.66
2022-09-18T04:48:29.127Z,95583.81
2022-09-18T04:50:55.723Z,95627.06
2022-09-18T04:53:22.351Z,95588.44
2022-09-18T04:55:48.992Z,95654.66
2022-09-18T04:58:16.044Z,95627.53
2022-09-18T05:00:56.125Z,95717.16
2022-09-18T05:03:22.783Z,95672.25
2022-09-18T05:05:50.366Z,95672.44
2022-09-18T05:08:17.164Z,95663.03
2022-09-18T05:10:43.876Z,95670.31
2022-09-18T05:13:10.563Z,95650.47
2022-09-18T05:15:37.200Z,95707.63
2022-09-18T05:18:11.365Z,95706.31
2022-09-18T05:20:38.213Z,95630.25
2022-09-18T05:23:04.804Z,95717.00
2022-09-18T05:25:31.662Z,95730.06
2022-09-18T05:27:59.719Z,95638.50
2022-09-18T05:30:26.746Z,95671.94
2022-09-18T05:33:00.544Z,95576.66
2022-09-18T05:35:28.463Z,95658.69
2022-09-18T05:37:55.225Z,95707.31
2022-09-18T05:40:25.603Z,95669.22
2022-09-18T05:42:55.653Z,95678.56
2022-09-18T05:45:22.463Z,95689.06
2022-09-18T05:47:59.323Z,95518.53
2022-09-18T05:50:26.747Z,95702.66
2022-09-18T05:53:15.474Z,95686.34
2022-09-18T05:55:42.083Z,95648.53
2022-09-18T05:58:12.256Z,95680.00
2022-09-18T06:00:38.832Z,95445.00
2022-09-18T06:03:07.110Z,95561.91
2022-09-18T06:05:34.732Z,95674.78
2022-09-18T06:08:02.041Z,95649.28
2022-09-18T06:10:29.344Z,95614.06
2022-09-18T06:13:05.765Z,95573.38
2022-09-18T06:15:32.772Z,95576.28
2022-09-18T06:17:59.379Z,95619.22
2022-09-18T06:20:26.114Z,95715.56
2022-09-18T06:22:52.745Z,95650.25
2022-09-18T06:25:21.937Z,95685.84
2022-09-18T06:27:53.586Z,95697.47
2022-09-18T06:30:20.496Z,95649.03
2022-09-18T06:32:47.148Z,95610.41
2022-09-18T06:35:13.844Z,95601.72
2022-09-18T06:37:40.441Z,95702.50
2022-09-18T06:40:07.282Z,95645.47
2022-09-18T06:42:33.999Z,95658.09
2022-09-18T06:45:00.580Z,95660.19
2022-09-18T06:47:27.161Z,95747.59
2022-09-18T06:49:53.803Z,95699.28
2022-09-18T06:52:20.402Z,95723.34
2022-09-18T06:54:47.037Z,95641.16
2022-09-18T06:57:13.638Z,95691.56
2022-09-18T06:59:40.276Z,95680.41
2022-09-18T07:02:15.034Z,95592.25
2022-09-18T07:04:44.087Z,95688.97
2022-09-18T07:07:10.682Z,95696.41
2022-09-18T07:09:37.272Z,95741.31
2022-09-18T07:12:03.978Z,95705.75
2022-09-18T07:14:30.627Z,95723.84
2022-09-18T07:16:57.214Z,95665.84
2022-09-18T07:19:23.960Z,95717.72
2022-09-18T07:21:52.143Z,95652.13
2022-09-18T07:24:18.781Z,95686.38
2022-09-18T07:26:45.375Z,95682.97
2022-09-18T07:29:11.941Z,95509.13
2022-09-18T07:31:38.633Z,95698.81
2022-09-18T07:34:07.301Z,95448.94
2022-09-18T07:36:33.943Z,95628.91
2022-09-18T07:39:00.690Z,95687.03
2022-09-18T07:41:27.502Z,95756.50
2022-09-18T07:43:54.082Z,95718.72
2022-09-18T07:46:20.734Z,95752.97
2022-09-18T07:48:47.374Z,95657.78
2022-09-18T07:51:14.250Z,95524.66
2022-09-18T07:53:41.282Z,95644.06
2022-09-18T07:56:09.381Z,95741.00
2022-09-18T07:58:36.310Z,95748.72
2022-09-18T08:01:03.400Z,95533.69
2022-09-18T08:03:30.227Z,95728.09
2022-09-18T08:05:56.874Z,95719.34
2022-09-18T08:08:23.536Z,95764.91
2022-09-18T08:10:50.140Z,95570.78
2022-09-18T08:13:16.709Z,95766.38
2022-09-18T08:15:43.320Z,95697.34
2022-09-18T08:18:11.428Z,95715.44
2022-09-18T08:20:38.036Z,95731.94
2022-09-18T08:23:06.232Z,95763.94
2022-09-18T08:25:33.012Z,95730.47
2022-09-18T08:28:01.712Z,95761.81
2022-09-18T08:30:28.516Z,95727.72
2022-09-18T08:33:02.936Z,95703.00
2022-09-18T08:35:30.686Z,95741.66
2022-09-18T08:37:58.116Z,95717.84
2022-09-18T08:40:39.440Z,95793.66
2022-09-18T08:43:21.844Z,95740.03
2022-09-18T08:46:05.303Z,95690.25
2022-09-18T08:48:35.196Z,95722.53
2022-09-18T08:51:19.360Z,95784.63
2022-09-18T08:53:47.872Z,95763.97
2022-09-18T08:56:20.949Z,95726.47
2022-09-18T08:58:52.568Z,95780.41
2022-09-18T09:01:19.265Z,95714.81
2022-09-18T09:04:07.462Z,95728.22
2022-09-18T09:06:46.097Z,95801.91
2022-09-18T09:09:22.729Z,95810.16
2022-09-18T09:12:02.126Z,95797.19
2022-09-18T09:14:58.148Z,95733.06
2022-09-18T09:17:40.067Z,95803.50
2022-09-18T09:20:12.556Z,95800.59
2022-09-18T09:23:05.613Z,95802.69
2022-09-18T09:25:51.350Z,95807.53
2022-09-18T09:28:23.731Z,95734.88
2022-09-18T09:30:54.702Z,95726.31
2022-09-18T09:33:24.798Z,95808.22
2022-09-18T09:35:53.772Z,95820.19
2022-09-18T09:38:32.345Z,95815.66
2022-09-18T09:41:01.711Z,95801.91
2022-09-18T09:43:32.508Z,95783.66
2022-09-18T09:46:00.892Z,95793.03
2022-09-18T09:48:30.717Z,95836.84
2022-09-18T09:51:07.849Z,95809.34
2022-09-18T09:53:34.402Z,95639.81
2022-09-18T09:56:28.927Z,95841.38
2022-09-18T09:59:34.449Z,95852.50
2022-09-18T10:02:25.798Z,95853.16
2022-09-18T10:05:10.973Z,95849.13
2022-09-18T10:07:41.538Z,95833.63
2022-09-18T10:10:18.938Z,95841.53
2022-09-18T10:13:02.061Z,95859.97
2022-09-18T10:15:40.621Z,95860.25
2022-09-18T10:18:39.495Z,95827.44
2022-09-18T10:21:09.423Z,95750.47
2022-09-18T10:24:20.528Z,95871.59
2022-09-18T10:26:50.334Z,95820.66
2022-09-18T10:29:17.648Z,95808.00
2022-09-18T10:31:49.436Z,95863.19
2022-09-18T10:34:42.574Z,95878.38
2022-09-18T10:37:16.077Z,95887.56
2022-09-18T10:39:51.446Z,95864.09
2022-09-18T10:42:22.198Z,95850.44
2022-09-18T10:45:13.073Z,95854.34
2022-09-18T10:47:39.750Z,95766.06
2022-09-18T10:50:06.411Z,95893.06
2022-09-18T10:52:42.972Z,95871.22
2022-09-18T10:55:12.935Z,95905.66
2022-09-18T10:57:43.745Z,95885.66
2022-09-18T11:00:13.764Z,95892.91
2022-09-18T11:02:57.197Z,95869.28
2022-09-18T11:05:31.532Z,95759.28
2022-09-18T11:07:59.680Z,95813.16
2022-09-18T11:10:27.085Z,95885.47
2022-09-18T11:12:56.044Z,95894.84
2022-09-18T11:15:28.422Z,95853.28
2022-09-18T11:17:56.554Z,95882.72
2022-09-18T11:20:27.112Z,95817.66
2022-09-18T11:23:34.185Z,95900.66
2022-09-18T11:26:29.826Z,95916.69
2022-09-18T11:29:02.431Z,95905.19
2022-09-18T11:31:50.124Z,95830.22
2022-09-18T11:34:32.094Z,95862.59
2022-09-18T11:37:05.410Z,95792.03
2022-09-18T11:39:43.410Z,95880.81
2022-09-18T11:42:12.536Z,95864.84
2022-09-18T11:44:39.530Z,95658.16
2022-09-18T11:47:12.089Z,95907.44
2022-09-18T11:49:44.689Z,95889.47
2022-09-18T11:52:17.269Z,95905.19
2022-09-18T11:54:48.995Z,95908.59
2022-09-18T11:57:51.301Z,95906.16
2022-09-18T12:00:22.329Z,95863.28
2022-09-18T12:03:00.629Z,95758.00
2022-09-18T12:05:33.152Z,95912.19
2022-09-18T12:08:20.376Z,95915.88
2022-09-18T12:10:48.699Z,95846.00
2022-09-18T12:13:21.861Z,95912.00
2022-09-18T12:16:07.701Z,95851.47
2022-09-18T12:18:48.485Z,95876.25
2022-09-18T12:21:17.098Z,95861.19
2022-09-18T12:23:43.683Z,95892.09
2022-09-18T12:26:40.532Z,95929.94
2022-09-18T12:29:22.789Z,95867.69
2022-09-18T12:32:20.060Z,95854.91
2022-09-18T12:35:17.395Z,95918.66
2022-09-18T12:37:45.636Z,95925.13
2022-09-18T12:40:25.831Z,95917.03
2022-09-18T12:43:26.407Z,95910.09
2022-09-18T12:46:14.180Z,95911.19
2022-09-18T12:48:45.824Z,95913.41
2022-09-18T12:51:36.825Z,95906.78
2022-09-18T12:54:17.930Z,95846.44
2022-09-18T12:57:00.775Z,95838.63
2022-09-18T12:59:49.851Z,95905.19
2022-09-18T13:02:16.295Z,95899.78
2022-09-18T13:04:46.845Z,95856.72
2022-09-18T13:07:17.153Z,95904.38
2022-09-18T13:10:00.977Z,95697.91
2022-09-18T13:12:31.277Z,95760.66
2022-09-18T13:15:01.801Z,95719.56
2022-09-18T13:17:34.620Z,95840.50
2022-09-18T13:20:11.327Z,95852.06
2022-09-18T13:22:38.086Z,95544.72
2022-09-18T13:25:19.064Z,95825.94
2022-09-18T13:27:49.684Z,95852.38
2022-09-18T13:30:31.964Z,95843.06
2022-09-18T13:32:59.022Z,95874.78
2022-09-18T13:35:30.684Z,95877.09
2022-09-18T13:38:20.040Z,95856.22
2022-09-18T13:40:56.659Z,95917.16
2022-09-18T13:43:43.617Z,95920.19
2022-09-18T13:46:31.797Z,95755.03
2022-09-18T13:48:59.072Z,95908.94
2022-09-18T13:51:32.748Z,95932.50
2022-09-18T13:54:11.587Z,95931.88
2022-09-18T13:57:03.165Z,95926.00
2022-09-18T13:59:48.520Z,95934.88
2022-09-18T14:02:25.273Z,95937.66
2022-09-18T14:05:04.504Z,95921.72
2022-09-18T14:07:31.017Z,95945.44
2022-09-18T14:10:03.057Z,95814.31
2022-09-18T14:12:33.402Z,95854.63
2022-09-18T14:15:05.670Z,95806.44
2022-09-18T14:17:33.123Z,95925.88
2022-09-18T14:20:07.647Z,95898.94
2022-09-18T14:22:38.029Z,95767.59
2022-09-18T14:25:07.420Z,95850.34
2022-09-18T14:27:56.063Z,95918.72
2022-09-18T14:30:27.487Z,95867.00
2022-09-18T14:33:16.459Z,95932.22
2022-09-18T14:35:43.050Z,95928.06
2022-09-18T14:38:36.701Z,95934.13
2022-09-18T14:41:19.400Z,95924.81
2022-09-18T14:43:56.985Z,95942.88
2022-09-18T14:46:24.841Z,95914.97
2022-09-18T14:48:51.686Z,95652.94
2022-09-18T14:51:21.482Z,95933.97
2022-09-18T14:53:52.777Z,95875.88
2022-09-18T14:56:36.304Z,95892.22
2022-09-18T14:59:07.320Z,95899.00
2022-09-18T15:01:37.791Z,95895.59
2022-09-18T15:04:05.171Z,95784.88
2022-09-18T15:06:47.522Z,95915.97
2022-09-18T15:09:15.329Z,95855.03
2022-09-18T15:12:01.431Z,95825.97
2022-09-18T15:14:41.821Z,95908.94
2022-09-18T15:17:25.166Z,95834.22
2022-09-18T15:19:59.903Z,95833.94
2022-09-18T15:22:27.171Z,95881.84
2022-09-18T15:24:53.836Z,95875.16
2022-09-18T15:27:20.778Z,95761.81
2022-09-18T15:30:09.698Z,95903.31
2022-09-18T15:32:40.921Z,95832.19
2022-09-18T15:35:08.968Z,95844.13
2022-09-18T15:37:38.374Z,95870.41
2022-09-18T15:40:06.686Z,95908.06
2022-09-18T15:42:38.282Z,95840.25
2022-09-18T15:45:07.949Z,95906.00
2022-09-18T15:47:37.864Z,95872.97
2022-09-18T15:50:10.566Z,95910.31
2022-09-18T15:52:41.217Z,95867.41
2022-09-18T15:55:10.883Z,95914.78
2022-09-18T15:57:38.017Z,95912.34
2022-09-18T16:00:11.738Z,95859.41
2022-09-18T16:02:39.314Z,95844.13
2022-09-18T16:05:13.717Z,95768.03
2022-09-18T16:07:40.855Z,95845.56
2022-09-18T16:10:35.177Z,95911.19
2022-09-18T16:13:11.115Z,95801.06
2022-09-18T16:15:37.799Z,95835.66
2022-09-18T16:18:24.729Z,95828.25
2022-09-18T16:20:51.462Z,95920.06
2022-09-18T16:23:32.764Z,95921.53
2022-09-18T16:26:06.041Z,95859.00
2022-09-18T16:28:57.070Z,95907.97
2022-09-18T16:31:25.596Z,95809.31
2022-09-18T16:34:01.393Z,95872.94
2022-09-18T16:36:35.393Z,95804.03
2022-09-18T16:39:04.382Z,95902.19
2022-09-18T16:41:31.076Z,95872.59
2022-09-18T16:43:57.805Z,95901.06
2022-09-18T16:46:27.149Z,95908.66
2022-09-18T16:48:53.757Z,95889.28
2022-09-18T16:51:21.963Z,95875.81
2022-09-18T16:53:48.534Z,95771.63
2022-09-18T16:56:16.196Z,95777.78
2022-09-18T16:58:42.793Z,95928.22
2022-09-18T17:01:09.896Z,95688.63
2022-09-18T17:03:36.729Z,95888.63
2022-09-18T17:06:03.427Z,95882.66
2022-09-18T17:08:30.458Z,95688.16
2022-09-18T17:10:57.265Z,95857.00
2022-09-18T17:13:23.982Z,95911.16
2022-09-18T17:15:50.651Z,95857.13
2022-09-18T17:18:17.364Z,95831.94
2022-09-18T17:20:45.885Z,95842.13
2022-09-18T17:23:12.528Z,95913.75
2022-09-18T17:25:39.104Z,95860.09
2022-09-18T17:28:06.041Z,95821.66
2022-09-18T17:30:32.614Z,95853.47
2022-09-18T17:32:59.318Z,95704.13
2022-09-18T17:35:26.507Z,95949.25
2022-09-18T17:37:53.253Z,95942.13
2022-09-18T17:40:19.922Z,95922.53
2022-09-18T17:42:46.560Z,95923.69
2022-09-18T17:45:13.226Z,95901.19
2022-09-18T17:47:39.835Z,95800.75
2022-09-18T17:50:07.529Z,95894.56
2022-09-18T17:52:37.412Z,95877.25
2022-09-18T17:55:04.302Z,95843.59
2022-09-18T17:57:32.116Z,95733.34
2022-09-18T17:59:58.703Z,95977.22
2022-09-18T18:02:25.426Z,95962.34
2022-09-18T18:04:52.088Z,95839.22
2022-09-18T18:07:18.640Z,95895.19
2022-09-18T18:09:45.190Z,95947.28
2022-09-18T18:12:13.800Z,95959.91
2022-09-18T18:14:41.649Z,95943.72
2022-09-18T18:17:08.689Z,95973.47
2022-09-18T18:19:35.322Z,95930.13
2022-09-18T18:22:01.883Z,95848.44
2022-09-18T18:24:29.793Z,95858.63
2022-09-18T18:26:57.056Z,95905.66
2022-09-18T18:29:24.323Z,95862.78
2022-09-18T18:31:51.715Z,95906.16
2022-09-18T18:34:22.336Z,95852.22
2022-09-18T18:36:50.284Z,95934.28
2022-09-18T18:39:16.952Z,95839.06
2022-09-18T18:41:44.947Z,95862.03
2022-09-18T18:44:21.848Z,95903.75
2022-09-18T18:46:50.177Z,95847.88
2022-09-18T18:49:17.096Z,95919.88
2022-09-18T18:51:48.015Z,95907.19
2022-09-18T18:54:16.047Z,95888.28
2022-09-18T18:56:43.344Z,95865.13
2022-09-18T18:59:15.035Z,95858.38
2022-09-18T19:01:42.767Z,95934.38
2022-09-18T19:04:11.699Z,95909.31
2022-09-18T19:06:40.345Z,95922.78
2022-09-18T19:09:19.790Z,95880.66
2022-09-18T19:11:48.397Z,95822.38
2022-09-18T19:14:19.774Z,95892.78
2022-09-18T19:16:46.682Z,95869.88
2022-09-18T19:19:13.974Z,95881.47
2022-09-18T19:21:40.768Z,95911.44
2022-09-18T19:24:08.493Z,95940.44
2022-09-18T19:26:35.367Z,95868.38
2022-09-18T19:29:05.584Z,95847.88
2022-09-18T19:31:33.329Z,95874.69
2022-09-18T19:33:59.988Z,95711.19
2022-09-18T19:36:28.086Z,95865.84
2022-09-18T19:38:59.169Z,95796.78
2022-09-18T19:41:25.625Z,95929.00
2022-09-18T19:43:52.432Z,95859.56
2022-09-18T19:46:24.217Z,95892.25
2022-09-18T19:48:51.397Z,95873.34
2022-09-18T19:51:18.046Z,95904.09
2022-09-18T19:53:44.690Z,95862.38
2022-09-18T19:56:27.604Z,95885.19
2022-09-18T19:58:58.226Z,95826.16
2022-09-18T20:01:24.779Z,95855.25
2022-09-18T20:03:54.805Z,95870.16
2022-09-18T20:06:22.978Z,95885.69
2022-09-18T20:08:50.070Z,95822.94
2022-09-18T20:11:16.693Z,95818.75
2022-09-18T20:13:43.317Z,95578.59
2022-09-18T20:16:10.357Z,95840.28
2022-09-18T20:18:37.889Z,95861.75
2022-09-18T20:21:08.956Z,95860.16
2022-09-18T20:23:36.227Z,95853.69
2022-09-18T20:26:18.138Z,95828.00
2022-09-18T20:28:44.810Z,95651.59
2022-09-18T20:31:14.229Z,95882.19
2022-09-18T20:33:40.949Z,95780.56
2022-09-18T20:36:08.340Z,95872.78
2022-09-18T20:38:36.886Z,95774.25
2022-09-18T20:41:06.930Z,95827.78
2022-09-18T20:43:35.831Z,95882.94
2022-09-18T20:46:05.505Z,95832.19
2022-09-18T20:48:36.717Z,95704.88
2022-09-18T20:51:09.220Z,95829.88
2022-09-18T20:53:38.302Z,95793.81
2022-09-18T20:56:09.506Z,95807.72
2022-09-18T20:58:36.222Z,95839.13
2022-09-18T21:01:12.732Z,95869.25
2022-09-18T21:03:43.092Z,95845.75
2022-09-18T21:06:22.820Z,95737.94
2022-09-18T21:08:50.806Z,95807.16
2022-09-18T21:11:19.729Z,95741.34
2022-09-18T21:13:49.181Z,95784.69
2022-09-18T21:16:20.575Z,95801.00
2022-09-18T21:18:48.134Z,95721.47
2022-09-18T21:21:15.901Z,95826.59
2022-09-18T21:23:56.200Z,95813.34
2022-09-18T21:26:33.119Z,95853.31
2022-09-18T21:29:12.956Z,95752.72
2022-09-18T21:31:42.650Z,95828.91
2022-09-18T21:34:14.241Z,95820.97
2022-09-18T21:36:45.388Z,95721.38
2022-09-18T21:39:13.003Z,95714.41
2022-09-18T21:41:40.149Z,95802.66
2022-09-18T21:44:08.730Z,95730.59
2022-09-18T21:46:38.854Z,95809.81
2022-09-18T21:49:06.886Z,95773.72
2022-09-18T21:51:37.353Z,95753.56
2022-09-18T21:54:05.576Z,95723.81
2022-09-18T21:56:32.551Z,95758.09
2022-09-18T21:58:59.980Z,95722.84
2022-09-18T22:01:28.587Z,95736.41
2022-09-18T22:03:56.394Z,95752.41
2022-09-18T22:06:27.447Z,95734.16
2022-09-18T22:08:56.627Z,95761.66
2022-09-18T22:11:29.594Z,95698.94
2022-09-18T22:14:00.997Z,95624.66
2022-09-18T22:16:28.896Z,95725.16
2022-09-18T22:18:55.661Z,95743.41
2022-09-18T22:21:24.753Z,95750.53
2022-09-18T22:23:53.283Z,95710.41
2022-09-18T22:26:25.059Z,95684.44
2022-09-18T22:28:56.549Z,95729.03
2022-09-18T22:31:24.104Z,95736.59
2022-09-18T22:33:57.697Z,95741.97
2022-09-18T22:36:25.134Z,95706.88
2022-09-18T22:38:52.302Z,95701.56
2022-09-18T22:41:18.988Z,95735.34
2022-09-18T22:43:45.587Z,95722.22
2022-09-18T22:46:24.077Z,95707.84
2022-09-18T22:48:51.478Z,95600.78
2022-09-18T22:51:19.234Z,95771.06
2022-09-18T22:54:04.840Z,95711.75
2022-09-18T22:56:31.454Z,95746.16
2022-09-18T22:58:58.186Z,95693.78
2022-09-18T23:01:27.615Z,95526.88
2022-09-18T23:03:56.756Z,95544.66
2022-09-18T23:06:25.570Z,95475.91
2022-09-18T23:08:52.922Z,95740.19
2022-09-18T23:11:24.301Z,95713.38
2022-09-18T23:13:52.980Z,95524.50
2022-09-18T23:16:19.910Z,95740.66
2022-09-18T23:18:54.324Z,95713.88
2022-09-18T23:21:21.863Z,95734.34
2022-09-18T23:23:49.013Z,95723.84
2022-09-18T23:26:23.280Z,95709.66
2022-09-18T23:28:51.090Z,95714.16
2022-09-18T23:31:24.128Z,95649.38
2022-09-18T23:33:52.611Z,95700.28
2022-09-18T23:36:30.038Z,95659.25
2022-09-18T23:38:58.223Z,95480.75
2022-09-18T23:41:24.924Z,95715.94
2022-09-18T23:43:52.392Z,95700.59
2022-09-18T23:46:19.167Z,95731.16
2022-09-18T23:48:47.442Z,95690.91
2022-09-18T23:51:14.103Z,95742.44
2022-09-18T23:53:41.792Z,95743.28
2022-09-18T23:56:12.398Z,95619.38
2022-09-18T23:58:39.048Z,95736.13
